Time;durP1;ratioP1;P1;durP2;ratioP2;P2;SDS_P1;SDS_P2;PMS_P1;PMS_P2;Temp;Humidity;BMP_temperature;BMP_pressure;BME280_temperature;BME280_humidity;BME280_pressure;Samples;Min_cycle;Max_cycle;Signal;HPM_P1;HPM_P2
2024/04/25 00:00:03;;;;;;;3.47;1.08;;;8.90;99.90;;;;;;5449541;26;20230;-77
2024/04/25 00:02:30;;;;;;;3.03;1.23;;;8.90;99.90;;;;;;5448496;26;20280;-76
2024/04/25 00:04:56;;;;;;;5.13;1.20;;;8.90;99.90;;;;;;5450802;26;20293;-76
2024/04/25 00:07:22;;;;;;;2.30;1.17;;;8.90;99.90;;;;;;5449208;26;20225;-76
2024/04/25 00:09:48;;;;;;;5.55;1.20;;;8.90;99.90;;;;;;5451433;26;20655;-76
2024/04/25 00:12:15;;;;;;;8.07;1.35;;;8.90;99.90;;;;;;5429134;26;20298;-76
2024/04/25 00:14:41;;;;;;;4.78;1.13;;;8.90;99.90;;;;;;5440014;26;20223;-76
2024/04/25 00:17:07;;;;;;;6.47;1.23;;;8.90;99.90;;;;;;5448596;26;20319;-76
2024/04/25 00:19:33;;;;;;;4.80;1.42;;;8.90;99.90;;;;;;5451219;26;20277;-76
2024/04/25 00:22:01;;;;;;;6.10;1.23;;;8.90;99.90;;;;;;5389877;26;20261;-76
2024/04/25 00:24:29;;;;;;;4.85;1.30;;;8.90;99.90;;;;;;5451327;26;20218;-76
2024/04/25 00:26:55;;;;;;;3.40;1.00;;;8.90;99.90;;;;;;5450787;26;20277;-75
2024/04/25 00:29:21;;;;;;;4.75;1.35;;;8.90;99.90;;;;;;5389453;26;20273;-76
2024/04/25 00:31:48;;;;;;;3.28;1.25;;;8.90;99.90;;;;;;5452452;26;20326;-76
2024/04/25 00:34:14;;;;;;;4.43;1.10;;;8.90;99.90;;;;;;5448737;26;20226;-77
2024/04/25 00:36:40;;;;;;;2.55;1.00;;;8.90;99.90;;;;;;5448597;26;20269;-76
2024/04/25 00:39:06;;;;;;;4.25;1.27;;;8.90;99.90;;;;;;5450979;26;20282;-76
2024/04/25 00:41:32;;;;;;;6.45;1.20;;;8.90;99.90;;;;;;5450050;26;20555;-76
2024/04/25 00:43:59;;;;;;;2.92;1.30;;;9.00;99.90;;;;;;5444275;26;20606;-76
2024/04/25 00:46:25;;;;;;;7.13;1.42;;;9.00;99.90;;;;;;5424464;26;20234;-76
2024/04/25 00:48:52;;;;;;;5.60;1.63;;;8.90;99.90;;;;;;5450742;26;20226;-76
2024/04/25 00:51:19;;;;;;;4.72;1.25;;;8.90;99.90;;;;;;5444644;26;20286;-76
2024/04/25 00:53:49;;;;;;;3.83;1.13;;;8.90;99.90;;;;;;5464537;26;20233;-76
2024/04/25 00:56:16;;;;;;;5.65;1.85;;;8.90;99.90;;;;;;5450125;26;20237;-76
2024/04/25 00:58:46;;;;;;;4.30;1.80;;;8.90;99.90;;;;;;5450764;26;20716;-77
2024/04/25 01:01:13;;;;;;;4.22;1.00;;;8.80;99.90;;;;;;5455845;26;20289;-76
2024/04/25 01:03:39;;;;;;;6.07;1.40;;;8.90;99.90;;;;;;5448871;26;20260;-76
2024/04/25 01:06:07;;;;;;;4.72;1.48;;;8.90;99.90;;;;;;5449815;26;20230;-77
2024/04/25 01:08:33;;;;;;;2.90;1.70;;;8.80;99.90;;;;;;5450705;26;20298;-76
2024/04/25 01:11:00;;;;;;;5.90;2.08;;;8.90;99.90;;;;;;5449024;26;20273;-76
2024/04/25 01:13:27;;;;;;;11.38;1.90;;;8.80;99.90;;;;;;5478265;26;20856;-76
2024/04/25 01:15:55;;;;;;;7.20;1.45;;;8.80;99.90;;;;;;5449748;26;20233;-76
2024/04/25 01:18:22;;;;;;;5.15;1.50;;;8.70;99.90;;;;;;5457531;26;20808;-76
2024/04/25 01:20:48;;;;;;;4.15;1.60;;;8.70;99.90;;;;;;5450312;26;20559;-76
2024/04/25 01:23:16;;;;;;;2.60;1.40;;;8.70;99.90;;;;;;5448535;26;20233;-76
2024/04/25 01:25:44;;;;;;;5.53;1.80;;;8.70;99.90;;;;;;5451854;26;20233;-76
2024/04/25 01:28:15;;;;;;;4.00;1.67;;;8.70;99.90;;;;;;5463825;26;20271;-76
2024/04/25 01:30:44;;;;;;;10.35;2.55;;;8.70;99.90;;;;;;5450211;26;20241;-76
2024/04/25 01:33:12;;;;;;;4.18;1.40;;;8.60;99.90;;;;;;5448270;26;20260;-76
2024/04/25 01:35:38;;;;;;;5.40;1.85;;;8.60;99.90;;;;;;5449509;26;20783;-76
2024/04/25 01:38:04;;;;;;;4.43;1.60;;;8.60;99.90;;;;;;5447988;26;20237;-75
2024/04/25 01:40:30;;;;;;;3.83;1.35;;;8.50;99.90;;;;;;5448608;26;20273;-76
2024/04/25 01:42:57;;;;;;;5.50;2.20;;;8.50;99.90;;;;;;5449644;26;20226;-76
2024/04/25 01:45:23;;;;;;;3.17;1.70;;;8.40;99.90;;;;;;5451542;26;20225;-76
2024/04/25 01:47:49;;;;;;;8.20;1.75;;;8.40;99.90;;;;;;5448179;26;20280;-75
2024/04/25 01:50:15;;;;;;;3.42;1.40;;;8.40;99.90;;;;;;5448025;26;20222;-75
2024/04/25 01:52:41;;;;;;;3.45;1.60;;;8.30;99.90;;;;;;5449634;26;20226;-75
2024/04/25 01:55:07;;;;;;;3.80;1.75;;;8.30;99.90;;;;;;5440572;26;20305;-75
2024/04/25 01:57:33;;;;;;;2.80;1.20;;;8.20;99.90;;;;;;5450319;26;20774;-75
2024/04/25 02:00:00;;;;;;;2.67;1.00;;;8.10;99.90;;;;;;5451907;26;20306;-75
2024/04/25 02:02:26;;;;;;;2.58;1.20;;;8.10;99.90;;;;;;5449330;26;20269;-75
2024/04/25 02:04:52;;;;;;;5.05;1.60;;;8.00;99.90;;;;;;5478671;26;20293;-75
2024/04/25 02:07:18;;;;;;;6.35;1.23;;;7.90;99.90;;;;;;5449653;26;20766;-75
2024/04/25 02:09:44;;;;;;;4.55;1.50;;;7.80;99.90;;;;;;5418321;26;20222;-75
2024/04/25 02:12:10;;;;;;;2.53;1.20;;;7.80;99.90;;;;;;5447456;26;20716;-75
2024/04/25 02:14:37;;;;;;;2.45;1.42;;;7.70;99.90;;;;;;5450084;26;20286;-73
2024/04/25 02:17:03;;;;;;;4.03;1.50;;;7.70;99.90;;;;;;5448637;26;20225;-74
2024/04/25 02:19:29;;;;;;;5.43;1.70;;;7.70;99.90;;;;;;5449993;26;20277;-75
2024/04/25 02:27:25;;;;;;;3.50;0.90;;;7.40;99.90;;;;;;5452179;26;20272;-75
2024/04/25 02:29:51;;;;;;;4.50;1.10;;;7.30;99.90;;;;;;5458575;26;20230;-75
2024/04/25 02:32:17;;;;;;;2.60;0.98;;;7.30;99.90;;;;;;5453148;26;20300;-75
2024/04/25 02:34:43;;;;;;;2.47;1.42;;;7.20;99.90;;;;;;5431744;26;20230;-75
2024/04/25 02:37:09;;;;;;;2.20;1.10;;;7.20;99.90;;;;;;5437455;26;20399;-76
2024/04/25 02:39:35;;;;;;;2.45;1.83;;;7.10;99.90;;;;;;5450996;26;20245;-75
2024/04/25 02:42:01;;;;;;;2.38;1.30;;;7.10;99.90;;;;;;5452431;26;20293;-75
2024/04/25 02:44:27;;;;;;;2.33;1.33;;;7.10;99.90;;;;;;5431563;26;20299;-75
2024/04/25 02:46:53;;;;;;;3.95;1.88;;;7.10;99.90;;;;;;5432263;26;20261;-75
2024/04/25 02:49:21;;;;;;;3.50;1.70;;;7.10;99.90;;;;;;5452633;26;20249;-75
2024/04/25 02:51:47;;;;;;;3.60;1.75;;;7.00;99.90;;;;;;5421026;26;20233;-75
2024/04/25 02:54:13;;;;;;;5.70;1.70;;;7.00;99.90;;;;;;5436215;26;20227;-75
2024/04/25 02:56:39;;;;;;;4.07;2.40;;;7.00;99.90;;;;;;5451800;26;20233;-75
2024/04/25 02:59:05;;;;;;;3.85;2.05;;;7.00;99.90;;;;;;5467310;26;20225;-75
2024/04/25 03:01:31;;;;;;;4.38;2.55;;;7.10;99.90;;;;;;5481644;26;20278;-75
2024/04/25 03:03:58;;;;;;;10.80;2.50;;;7.10;99.90;;;;;;5439743;26;20214;-75
2024/04/25 03:06:27;;;;;;;6.53;2.90;;;7.10;99.90;;;;;;5450842;26;20561;-76
2024/04/25 03:08:53;;;;;;;7.55;2.70;;;7.10;99.90;;;;;;5451854;26;20638;-75
2024/04/25 03:11:19;;;;;;;8.13;4.68;;;7.10;99.90;;;;;;5451711;26;20569;-75
2024/04/25 03:13:45;;;;;;;8.00;3.45;;;7.10;99.90;;;;;;5452395;26;20221;-75
2024/04/25 03:16:12;;;;;;;4.65;3.45;;;7.10;99.90;;;;;;5451269;26;20846;-75
2024/04/25 03:18:38;;;;;;;5.95;2.83;;;7.20;99.90;;;;;;5452153;26;20285;-75
2024/04/25 03:21:04;;;;;;;4.82;2.70;;;7.20;99.90;;;;;;5449943;26;20234;-75
2024/04/25 03:23:43;;;;;;;6.35;3.25;;;7.20;99.90;;;;;;5450488;26;20258;-76
2024/04/25 03:26:09;;;;;;;8.05;2.75;;;7.20;99.90;;;;;;5451722;26;20608;-76
2024/04/25 03:28:35;;;;;;;7.55;3.50;;;7.30;99.90;;;;;;5452299;26;20264;-76
2024/04/25 03:31:02;;;;;;;7.18;2.75;;;7.20;99.90;;;;;;5436915;26;20568;-75
2024/04/25 03:33:28;;;;;;;9.18;3.35;;;7.20;99.90;;;;;;5437281;26;20226;-76
2024/04/25 03:35:54;;;;;;;4.60;2.58;;;7.30;99.90;;;;;;5480760;26;20284;-75
2024/04/25 03:38:20;;;;;;;5.32;2.97;;;7.30;99.90;;;;;;5452032;26;20234;-76
2024/04/25 03:40:47;;;;;;;6.85;3.13;;;7.30;99.90;;;;;;5451877;26;20285;-75
2024/04/25 03:43:13;;;;;;;7.90;3.35;;;7.30;99.90;;;;;;5450362;26;20275;-75
2024/04/25 03:45:39;;;;;;;8.93;3.78;;;7.40;99.90;;;;;;5455617;26;20645;-75
2024/04/25 03:48:06;;;;;;;4.60;2.58;;;7.40;99.90;;;;;;5438984;26;20290;-75
2024/04/25 03:50:33;;;;;;;6.55;3.05;;;7.30;99.90;;;;;;5442644;26;20387;-76
2024/04/25 03:52:59;;;;;;;7.38;2.80;;;7.30;99.90;;;;;;5455268;26;20238;-76
2024/04/25 03:55:26;;;;;;;5.50;4.20;;;7.30;99.90;;;;;;5451519;26;20241;-76
2024/04/25 03:57:52;;;;;;;4.20;2.53;;;7.30;99.90;;;;;;5451266;26;20226;-76
2024/04/25 04:00:18;;;;;;;4.95;3.15;;;7.20;99.90;;;;;;5449587;26;20225;-76
2024/04/25 04:02:44;;;;;;;6.40;2.88;;;7.20;99.90;;;;;;5439904;26;20277;-76
2024/04/25 04:05:11;;;;;;;4.32;2.78;;;7.10;99.90;;;;;;5447292;26;20224;-76
2024/04/25 04:07:38;;;;;;;5.35;2.67;;;7.10;99.90;;;;;;5451686;26;20242;-77
2024/04/25 04:10:05;;;;;;;4.13;2.67;;;7.10;99.90;;;;;;5444482;26;20239;-76
2024/04/25 04:12:31;;;;;;;6.00;2.85;;;7.00;99.90;;;;;;5451589;26;20230;-76
2024/04/25 04:14:57;;;;;;;6.65;3.00;;;7.00;99.90;;;;;;5441847;26;20267;-77
2024/04/25 04:17:23;;;;;;;8.50;2.72;;;6.90;99.90;;;;;;5427848;26;20237;-76
2024/04/25 04:19:50;;;;;;;6.75;2.95;;;6.90;99.90;;;;;;5462347;26;20290;-76
2024/04/25 04:22:16;;;;;;;11.30;3.13;;;6.90;99.90;;;;;;5439849;26;20227;-76
2024/04/25 04:24:42;;;;;;;5.03;2.38;;;6.80;99.90;;;;;;5433635;26;20282;-76
2024/04/25 04:27:08;;;;;;;7.68;3.40;;;6.80;99.90;;;;;;5427658;26;20705;-77
2024/04/25 04:29:35;;;;;;;3.63;2.22;;;6.70;99.90;;;;;;5432228;26;20302;-76
2024/04/25 04:32:01;;;;;;;6.05;2.53;;;6.70;99.90;;;;;;5443233;26;20276;-76
2024/04/25 04:34:28;;;;;;;7.57;3.20;;;6.70;99.90;;;;;;5433961;26;20778;-76
2024/04/25 04:36:54;;;;;;;4.55;3.17;;;6.70;99.90;;;;;;5437380;26;20656;-77
2024/04/25 04:39:21;;;;;;;5.40;2.78;;;6.70;99.90;;;;;;5441744;26;20224;-77
2024/04/25 04:41:47;;;;;;;6.38;2.50;;;6.70;99.90;;;;;;5449059;26;20809;-77
2024/04/25 04:44:14;;;;;;;6.40;2.97;;;6.70;99.90;;;;;;5448678;26;20237;-77
2024/04/25 04:46:41;;;;;;;6.63;2.85;;;6.70;99.90;;;;;;5435710;26;20752;-77
2024/04/25 04:49:07;;;;;;;7.35;3.67;;;6.70;99.90;;;;;;5435247;26;20286;-77
2024/04/25 04:51:34;;;;;;;5.05;3.45;;;6.70;99.90;;;;;;5454318;26;20632;-77
2024/04/25 04:54:00;;;;;;;5.97;3.15;;;6.70;99.90;;;;;;5438258;26;20737;-77
2024/04/25 04:56:26;;;;;;;5.35;2.95;;;6.80;99.90;;;;;;5444752;26;20278;-77
2024/04/25 04:58:54;;;;;;;5.22;2.80;;;6.80;99.90;;;;;;5440714;26;20594;-76
2024/04/25 05:01:20;;;;;;;8.50;2.97;;;6.90;99.90;;;;;;5420353;26;20248;-76
2024/04/25 05:03:46;;;;;;;4.65;3.35;;;7.00;99.90;;;;;;5445340;26;20230;-77
2024/04/25 05:06:12;;;;;;;8.45;4.63;;;7.10;99.90;;;;;;5444057;26;20747;-77
2024/04/25 05:08:38;;;;;;;5.55;3.47;;;7.20;99.90;;;;;;5430426;26;20227;-77
2024/04/25 05:11:04;;;;;;;4.50;3.10;;;7.20;99.90;;;;;;5444430;26;20237;-77
2024/04/25 05:13:30;;;;;;;4.45;2.95;;;7.30;99.90;;;;;;5450731;26;20625;-77
2024/04/25 05:15:56;;;;;;;5.70;3.25;;;7.40;99.90;;;;;;5449551;26;20237;-77
2024/04/25 05:18:23;;;;;;;8.38;3.60;;;7.50;99.90;;;;;;5449957;26;20278;-77
2024/04/25 05:20:49;;;;;;;6.13;3.45;;;7.50;99.90;;;;;;5448770;26;20241;-77
2024/04/25 05:23:15;;;;;;;4.68;2.53;;;7.60;99.90;;;;;;5436782;26;20222;-77
2024/04/25 05:25:41;;;;;;;9.63;2.88;;;7.70;99.90;;;;;;5428535;26;20237;-78
2024/04/25 05:28:07;;;;;;;5.75;2.47;;;7.80;99.90;;;;;;5453137;26;20555;-77
2024/04/25 05:30:34;;;;;;;3.72;2.70;;;7.80;99.90;;;;;;5448712;26;20272;-77
2024/04/25 05:33:03;;;;;;;4.53;2.15;;;7.90;99.90;;;;;;5450580;26;20631;-77
2024/04/25 05:35:29;;;;;;;6.28;1.88;;;8.00;99.90;;;;;;5449594;26;20264;-78
2024/04/25 05:37:55;;;;;;;4.57;2.30;;;8.10;99.90;;;;;;5427103;26;20231;-78
2024/04/25 05:40:22;;;;;;;4.70;1.70;;;8.20;99.90;;;;;;5446500;26;20253;-78
2024/04/25 05:42:48;;;;;;;3.22;1.90;;;8.30;99.90;;;;;;5450452;26;20226;-78
2024/04/25 05:45:14;;;;;;;6.50;1.45;;;8.40;99.90;;;;;;5448633;26;20276;-78
2024/04/25 05:47:40;;;;;;;3.05;1.27;;;8.50;99.90;;;;;;5419643;26;20233;-78
2024/04/25 05:50:06;;;;;;;5.55;1.25;;;8.60;99.90;;;;;;5451120;26;20301;-78
2024/04/25 05:52:32;;;;;;;2.60;1.00;;;8.60;99.90;;;;;;5434317;26;20245;-78
2024/04/25 05:54:59;;;;;;;3.40;1.10;;;8.70;99.90;;;;;;5451491;26;20222;-78
2024/04/25 05:57:25;;;;;;;3.28;0.90;;;8.70;99.90;;;;;;5478750;26;20233;-77
2024/04/25 05:59:51;;;;;;;3.80;1.15;;;8.70;99.90;;;;;;5449232;26;20630;-78
2024/04/25 06:02:17;;;;;;;2.25;1.40;;;8.70;99.90;;;;;;5448554;26;20230;-77
2024/04/25 06:04:43;;;;;;;3.58;1.10;;;8.70;99.90;;;;;;5458218;26;20228;-76
2024/04/25 06:07:09;;;;;;;2.03;1.00;;;8.70;99.90;;;;;;5450433;26;20300;-77
2024/04/25 06:09:35;;;;;;;4.30;2.10;;;8.70;99.90;;;;;;5434832;26;20292;-77
2024/04/25 06:12:02;;;;;;;3.25;1.58;;;8.70;99.90;;;;;;5456958;26;20221;-76
2024/04/25 06:14:28;;;;;;;4.93;1.70;;;8.70;99.90;;;;;;5432538;26;21939;-76
2024/04/25 06:16:54;;;;;;;5.88;2.55;;;8.70;99.90;;;;;;5427762;26;20283;-77
2024/04/25 06:19:20;;;;;;;5.30;2.60;;;8.70;99.90;;;;;;5440329;26;20234;-76
2024/04/25 06:21:46;;;;;;;4.05;2.15;;;8.80;99.90;;;;;;5436287;26;20320;-76
2024/04/25 06:24:12;;;;;;;3.20;2.25;;;8.80;99.90;;;;;;5448896;26;20276;-77
2024/04/25 06:26:38;;;;;;;4.93;3.20;;;8.80;99.90;;;;;;5434991;26;20599;-76
2024/04/25 06:29:05;;;;;;;3.60;2.72;;;8.90;99.90;;;;;;5450734;26;20559;-77
2024/04/25 06:31:32;;;;;;;9.02;3.38;;;8.90;99.90;;;;;;5441782;26;20279;-77
2024/04/25 06:34:04;;;;;;;6.97;2.97;;;9.00;99.90;;;;;;5455750;26;20340;-77
2024/04/25 06:36:34;;;;;;;4.70;3.00;;;9.10;99.90;;;;;;5471709;26;20617;-77
2024/04/25 06:39:01;;;;;;;6.20;3.70;;;9.20;99.90;;;;;;5445740;26;20333;-77
2024/04/25 06:41:28;;;;;;;5.88;3.97;;;9.30;99.90;;;;;;5448284;26;20233;-76
2024/04/25 06:43:54;;;;;;;7.78;4.00;;;9.30;99.90;;;;;;5449584;26;20265;-77
2024/04/25 06:46:20;;;;;;;7.63;3.97;;;9.30;99.90;;;;;;5451591;26;20233;-76
2024/04/25 06:48:47;;;;;;;9.55;4.47;;;9.40;99.90;;;;;;5449370;26;20784;-76
2024/04/25 06:51:18;;;;;;;6.28;4.53;;;9.40;99.90;;;;;;5446806;26;20272;-76
2024/04/25 06:53:47;;;;;;;9.57;4.63;;;9.50;99.90;;;;;;5468307;26;20633;-76
2024/04/25 06:56:14;;;;;;;9.95;4.70;;;9.50;99.90;;;;;;5419290;26;20234;-77
2024/04/25 06:58:40;;;;;;;6.70;4.65;;;9.50;99.90;;;;;;5461201;26;20260;-77
2024/04/25 07:01:06;;;;;;;5.95;4.40;;;9.60;99.90;;;;;;5434794;26;20239;-77
2024/04/25 07:03:33;;;;;;;9.00;4.72;;;9.60;99.90;;;;;;5434903;26;20254;-77
2024/04/25 07:05:59;;;;;;;7.53;4.68;;;9.70;99.90;;;;;;5428159;26;20285;-76
2024/04/25 07:08:26;;;;;;;6.38;3.92;;;9.70;99.90;;;;;;5452046;26;20221;-76
2024/04/25 07:10:52;;;;;;;9.38;4.90;;;9.70;99.90;;;;;;5402211;26;20278;-76
2024/04/25 07:13:18;;;;;;;7.70;4.70;;;9.70;99.90;;;;;;5445990;26;20313;-76
2024/04/25 07:15:44;;;;;;;6.60;4.57;;;9.80;99.90;;;;;;5452204;26;20256;-76
2024/04/25 07:18:12;;;;;;;8.10;5.45;;;9.90;99.90;;;;;;5443478;26;20264;-76
2024/04/25 07:20:38;;;;;;;9.27;4.78;;;10.00;99.90;;;;;;5446412;26;20230;-76
2024/04/25 07:23:04;;;;;;;9.95;5.15;;;10.10;99.90;;;;;;5438611;26;20226;-76
2024/04/25 07:25:30;;;;;;;10.15;5.15;;;10.20;99.90;;;;;;5449298;26;20293;-76
2024/04/25 07:27:56;;;;;;;7.80;5.15;;;10.30;99.90;;;;;;5451961;26;20670;-77
2024/04/25 07:30:22;;;;;;;6.68;5.28;;;10.50;99.90;;;;;;5476178;26;20337;-76
2024/04/25 07:32:49;;;;;;;8.75;5.13;;;10.70;99.90;;;;;;5450201;26;20237;-76
2024/04/25 07:35:15;;;;;;;9.10;5.63;;;11.00;99.90;;;;;;5463415;26;20238;-76
2024/04/25 07:37:41;;;;;;;9.88;5.30;;;11.30;99.90;;;;;;5451792;26;20619;-76
2024/04/25 07:40:08;;;;;;;9.00;4.28;;;11.50;99.90;;;;;;5449949;26;20230;-76
2024/04/25 07:42:35;;;;;;;6.85;4.13;;;11.70;99.90;;;;;;5450881;26;20290;-76
2024/04/25 07:45:01;;;;;;;6.63;3.60;;;11.90;99.90;;;;;;5451897;26;20274;-76
2024/04/25 07:47:28;;;;;;;5.82;3.60;;;12.00;99.90;;;;;;5450955;26;20225;-76
2024/04/25 07:49:55;;;;;;;6.43;4.00;;;12.30;99.90;;;;;;5455123;26;20218;-75
2024/04/25 07:52:22;;;;;;;9.15;4.60;;;12.60;99.90;;;;;;5451218;26;20649;-76
2024/04/25 07:54:48;;;;;;;5.80;3.50;;;12.90;99.90;;;;;;5449180;26;20340;-76
2024/04/25 07:57:15;;;;;;;6.07;3.70;;;13.30;99.90;;;;;;5453205;26;20523;-76
2024/04/25 07:59:41;;;;;;;6.00;3.20;;;13.70;99.90;;;;;;5459283;26;20583;-76
2024/04/25 08:02:07;;;;;;;4.53;3.20;;;14.00;99.90;;;;;;5455045;26;20532;-76
2024/04/25 08:04:33;;;;;;;8.67;4.13;;;14.20;99.90;;;;;;5448381;26;20584;-76
2024/04/25 08:07:00;;;;;;;6.47;3.90;;;14.30;99.90;;;;;;5450986;26;20694;-76
2024/04/25 08:09:27;;;;;;;4.97;3.60;;;14.40;99.90;;;;;;5450711;26;20527;-76
2024/04/25 08:11:54;;;;;;;7.07;3.57;;;14.50;99.90;;;;;;5451585;26;20935;-76
2024/04/25 08:14:20;;;;;;;5.50;3.03;;;14.60;99.90;;;;;;5446856;26;20559;-76
2024/04/25 08:16:47;;;;;;;4.23;2.83;;;14.50;99.90;;;;;;5437294;26;21132;-76
2024/04/25 08:19:13;;;;;;;6.53;3.40;;;14.50;99.90;;;;;;5451579;26;20604;-77
2024/04/25 08:21:40;;;;;;;4.93;2.43;;;14.30;99.90;;;;;;5451954;26;20885;-77
2024/04/25 08:24:09;;;;;;;7.40;3.10;;;14.20;99.90;;;;;;5435507;26;20535;-77
2024/04/25 08:26:35;;;;;;;4.10;2.17;;;14.20;99.90;;;;;;5451181;26;20338;-77
2024/04/25 08:29:01;;;;;;;4.83;2.53;;;14.00;99.90;;;;;;5456972;26;20522;-76
2024/04/25 08:31:28;;;;;;;4.53;2.13;;;14.00;99.90;;;;;;5440028;26;20955;-77
2024/04/25 08:33:54;;;;;;;4.93;2.53;;;14.00;99.90;;;;;;5441212;26;20528;-77
2024/04/25 08:36:20;;;;;;;7.97;2.30;;;14.10;99.90;;;;;;5432890;26;21062;-78
2024/04/25 08:38:49;;;;;;;4.80;2.00;;;14.00;99.90;;;;;;5435334;26;20599;-77
2024/04/25 08:41:17;;;;;;;6.37;2.07;;;14.00;99.90;;;;;;5429034;26;20610;-77
2024/04/25 08:43:43;;;;;;;3.20;2.03;;;13.90;99.90;;;;;;5434583;26;20521;-76
2024/04/25 08:46:16;;;;;;;7.03;2.30;;;13.80;99.90;;;;;;5462219;26;20567;-76
2024/04/25 08:48:44;;;;;;;9.37;4.00;;;13.60;99.90;;;;;;5444689;26;21080;-77
2024/04/25 08:51:13;;;;;;;5.37;2.50;;;13.50;99.90;;;;;;5435350;26;20549;-77
2024/04/25 08:53:40;;;;;;;5.53;2.03;;;13.50;99.90;;;;;;5432916;26;20525;-76
2024/04/25 08:56:11;;;;;;;6.77;3.00;;;13.50;99.90;;;;;;5434350;26;20651;-77
2024/04/25 08:58:37;;;;;;;5.50;2.37;;;13.60;99.90;;;;;;5426973;26;20597;-76
2024/04/25 09:01:07;;;;;;;5.90;2.27;;;13.70;99.90;;;;;;5438571;26;20595;-77
2024/04/25 09:03:33;;;;;;;4.37;2.20;;;13.80;99.90;;;;;;5434264;26;20945;-76
2024/04/25 09:05:59;;;;;;;6.60;2.37;;;13.90;99.90;;;;;;5430746;26;20567;-76
2024/04/25 09:08:27;;;;;;;7.13;1.87;;;14.10;99.90;;;;;;5433374;26;20521;-76
2024/04/25 09:10:53;;;;;;;4.43;1.97;;;14.20;99.90;;;;;;5434032;26;20586;-76
2024/04/25 09:13:21;;;;;;;3.47;2.07;;;14.60;99.90;;;;;;5459854;26;20528;-76
2024/04/25 09:15:47;;;;;;;7.53;1.80;;;15.10;99.90;;;;;;5432354;26;21075;-75
2024/04/25 09:18:14;;;;;;;10.23;1.53;;;15.60;99.90;;;;;;5428804;26;20596;-76
2024/04/25 09:20:41;;;;;;;5.23;1.40;;;16.00;99.90;;;;;;5432026;26;21195;-76
2024/04/25 09:23:07;;;;;;;7.30;1.47;;;16.40;99.90;;;;;;5430962;26;20848;-76
2024/04/25 09:25:33;;;;;;;4.83;1.30;;;16.70;99.90;;;;;;5431459;26;20651;-76
2024/04/25 09:28:02;;;;;;;3.80;1.20;;;17.20;99.90;;;;;;5433482;26;20599;-76
2024/04/25 09:30:30;;;;;;;4.20;1.20;;;17.80;99.90;;;;;;5432546;26;20919;-76
2024/04/25 09:32:57;;;;;;;5.93;1.47;;;18.50;99.90;;;;;;5429685;26;20982;-76
2024/04/25 09:35:23;;;;;;;5.70;1.50;;;19.20;99.90;;;;;;5430315;26;20585;-76
2024/04/25 09:37:49;;;;;;;2.87;1.00;;;19.70;99.90;;;;;;5430734;26;20634;-77
2024/04/25 09:40:15;;;;;;;3.00;1.27;;;20.40;99.90;;;;;;5377621;26;20593;-76
2024/04/25 09:42:41;;;;;;;3.50;1.00;;;21.00;99.90;;;;;;5429419;26;20551;-73
2024/04/25 09:45:12;;;;;;;4.27;1.20;;;21.50;99.90;;;;;;5431218;26;20701;-76
2024/04/25 09:47:52;;;;;;;4.17;1.30;;;22.10;99.90;;;;;;5436873;26;20592;-74
2024/04/25 09:50:25;;;;;;;5.57;0.93;;;23.00;99.90;;;;;;5426246;26;20557;-74
2024/04/25 09:53:06;;;;;;;3.43;1.10;;;23.70;99.90;;;;;;5430953;26;20519;-74
2024/04/25 09:55:40;;;;;;;2.63;0.90;;;24.40;99.90;;;;;;5429569;26;20557;-73
2024/04/25 09:58:13;;;;;;;3.77;0.90;;;25.10;99.90;;;;;;5429567;26;20546;-74
2024/04/25 10:00:41;;;;;;;2.87;1.20;;;25.50;99.90;;;;;;5431376;26;20521;-74
2024/04/25 10:03:08;;;;;;;3.17;0.90;;;25.80;99.90;;;;;;5431991;26;20573;-74
2024/04/25 10:05:35;;;;;;;3.60;1.13;;;25.80;99.90;;;;;;5427810;26;20567;-75
2024/04/25 10:08:01;;;;;;;3.17;1.03;;;25.60;99.90;;;;;;5436867;26;20610;-75
2024/04/25 10:10:28;;;;;;;3.50;0.83;;;25.30;99.90;;;;;;5435428;26;20580;-76
2024/04/25 10:12:58;;;;;;;4.77;1.30;;;24.80;99.90;;;;;;5434143;26;21271;-76
2024/04/25 10:15:31;;;;;;;3.13;1.10;;;24.20;98.10;;;;;;5425095;26;21178;-75
2024/04/25 10:17:58;;;;;;;3.33;0.90;;;23.40;94.60;;;;;;5429700;26;20504;-76
2024/04/25 10:20:24;;;;;;;4.50;1.10;;;22.70;95.30;;;;;;5429013;26;20582;-76
2024/04/25 10:23:01;;;;;;;2.23;0.80;;;22.00;94.30;;;;;;5435205;26;20597;-75
2024/04/25 10:25:28;;;;;;;5.07;1.10;;;21.30;92.70;;;;;;5438025;26;20551;-75
2024/04/25 10:28:03;;;;;;;4.53;1.20;;;20.70;94.80;;;;;;5437332;26;20528;-74
2024/04/25 10:30:29;;;;;;;4.37;1.20;;;20.20;94.70;;;;;;5400146;26;20671;-76
2024/04/25 10:32:55;;;;;;;2.37;1.00;;;19.70;95.10;;;;;;5433045;26;20531;-76
2024/04/25 10:35:22;;;;;;;5.37;1.00;;;19.30;95.20;;;;;;5432581;26;20574;-76
2024/04/25 10:37:50;;;;;;;2.20;1.00;;;19.00;96.20;;;;;;5437331;26;20602;-76
2024/04/25 10:40:20;;;;;;;2.97;1.37;;;18.80;96.60;;;;;;5435465;26;20528;-76
2024/04/25 10:43:13;;;;;;;3.93;1.20;;;18.60;96.90;;;;;;5428455;26;20535;-75
2024/04/25 10:45:39;;;;;;;2.80;0.80;;;18.50;95.90;;;;;;5432400;26;20573;-76
2024/04/25 10:48:09;;;;;;;3.13;1.00;;;18.40;98.20;;;;;;5439163;26;21229;-76
2024/04/25 10:50:37;;;;;;;3.40;0.97;;;18.30;96.80;;;;;;5433282;26;20635;-77
2024/04/25 10:53:03;;;;;;;3.53;1.10;;;18.10;97.10;;;;;;5435858;26;20591;-77
2024/04/25 10:55:30;;;;;;;3.50;0.87;;;18.00;97.00;;;;;;5436280;26;20561;-77
2024/04/25 10:57:58;;;;;;;4.77;0.93;;;17.80;96.20;;;;;;5429416;26;21413;-78
2024/04/25 11:00:24;;;;;;;4.50;1.37;;;17.60;96.60;;;;;;5459384;26;20643;-78
2024/04/25 11:02:50;;;;;;;7.33;1.47;;;17.50;96.70;;;;;;5436344;26;20570;-76
2024/04/25 11:05:17;;;;;;;4.83;0.83;;;17.40;96.90;;;;;;5430967;26;20568;-76
2024/04/25 11:07:43;;;;;;;5.03;1.37;;;17.30;96.30;;;;;;5437988;26;20564;-77
2024/04/25 11:10:09;;;;;;;3.53;0.80;;;17.10;96.00;;;;;;5437092;26;20528;-76
2024/04/25 11:12:37;;;;;;;4.43;1.20;;;17.00;96.60;;;;;;5447986;26;20515;-77
2024/04/25 11:15:17;;;;;;;3.20;0.90;;;16.90;96.20;;;;;;5439568;26;21190;-76
2024/04/25 11:17:44;;;;;;;2.63;0.70;;;16.80;94.90;;;;;;5429344;26;20528;-75
2024/04/25 11:20:11;;;;;;;5.60;1.43;;;16.60;95.40;;;;;;5432097;26;20621;-76
2024/04/25 11:22:37;;;;;;;2.97;0.80;;;16.60;95.10;;;;;;5436268;26;20860;-77
2024/04/25 11:25:16;;;;;;;5.00;0.80;;;16.50;95.60;;;;;;5461706;26;20588;-78
2024/04/25 11:27:43;;;;;;;2.60;0.90;;;16.40;94.30;;;;;;5434638;26;20527;-77
2024/04/25 11:30:10;;;;;;;3.93;1.00;;;16.50;96.50;;;;;;5434782;26;20525;-76
2024/04/25 11:32:36;;;;;;;6.30;1.43;;;16.60;95.60;;;;;;5437677;26;21147;-78
2024/04/25 11:35:09;;;;;;;3.23;1.00;;;16.70;96.70;;;;;;5470218;26;20552;-78
2024/04/25 11:37:39;;;;;;;3.20;1.23;;;16.90;95.40;;;;;;5434827;26;20561;-77
2024/04/25 11:40:05;;;;;;;6.83;0.90;;;17.30;98.00;;;;;;5439257;26;20625;-76
2024/04/25 11:42:32;;;;;;;4.53;1.20;;;17.70;99.50;;;;;;5396310;26;20635;-76
2024/04/25 11:44:58;;;;;;;1.73;0.90;;;18.00;98.60;;;;;;5437907;26;20579;-76
2024/04/25 11:47:24;;;;;;;2.37;1.03;;;18.20;96.80;;;;;;5428533;26;20584;-76
2024/04/25 11:49:50;;;;;;;6.30;3.90;;;18.20;96.20;;;;;;5436591;26;20609;-76
2024/04/25 11:52:16;;;;;;;3.50;2.30;;;18.30;96.60;;;;;;5427702;26;20601;-77
2024/04/25 11:54:43;;;;;;;4.20;2.40;;;18.50;98.20;;;;;;5441705;26;20613;-76
2024/04/25 11:57:09;;;;;;;3.63;1.43;;;18.90;98.70;;;;;;5438364;26;20607;-78
2024/04/25 11:59:35;;;;;;;5.73;2.20;;;19.20;99.10;;;;;;5437390;26;20584;-77
2024/04/25 12:02:02;;;;;;;4.53;1.90;;;19.30;97.40;;;;;;5448559;26;20599;-77
2024/04/25 12:04:28;;;;;;;10.37;2.90;;;19.50;97.30;;;;;;5442846;26;20529;-77
2024/04/25 12:06:54;;;;;;;4.70;1.43;;;19.70;97.20;;;;;;5441069;26;20564;-77
2024/04/25 12:09:21;;;;;;;4.93;1.43;;;19.80;97.10;;;;;;5432060;26;20524;-77
2024/04/25 12:11:49;;;;;;;5.50;1.70;;;19.90;96.60;;;;;;5431643;26;20533;-77
2024/04/25 12:14:15;;;;;;;3.27;1.57;;;19.90;95.10;;;;;;5428271;26;20859;-79
2024/04/25 12:16:41;;;;;;;5.23;1.23;;;19.80;93.90;;;;;;5439817;26;20556;-78
2024/04/25 12:19:08;;;;;;;4.80;1.63;;;19.60;92.30;;;;;;5401856;26;20636;-78
2024/04/25 12:21:35;;;;;;;4.00;1.43;;;19.40;91.30;;;;;;5463655;26;20619;-77
2024/04/25 12:24:01;;;;;;;3.57;1.60;;;19.10;90.90;;;;;;5436948;26;20616;-77
2024/04/25 12:26:27;;;;;;;4.10;1.40;;;18.70;90.30;;;;;;5436046;26;21246;-77
2024/04/25 12:28:53;;;;;;;4.73;1.27;;;18.40;90.30;;;;;;5448137;26;20545;-77
2024/04/25 12:31:19;;;;;;;2.77;0.90;;;18.00;89.40;;;;;;5430165;26;20883;-77
2024/04/25 12:33:45;;;;;;;3.27;1.00;;;17.70;89.30;;;;;;5449729;26;20606;-76
2024/04/25 12:36:11;;;;;;;2.93;0.90;;;17.40;89.80;;;;;;5440720;26;20666;-76
2024/04/25 12:38:37;;;;;;;3.60;0.90;;;17.20;90.50;;;;;;5446597;26;20621;-76
2024/04/25 12:41:04;;;;;;;3.50;1.00;;;17.10;90.80;;;;;;5449496;26;20915;-76
2024/04/25 12:43:30;;;;;;;2.33;0.80;;;17.10;91.20;;;;;;5439216;26;20596;-76
2024/04/25 12:45:56;;;;;;;3.73;1.07;;;17.00;91.40;;;;;;5449108;26;20656;-76
2024/04/25 12:48:22;;;;;;;2.47;1.10;;;17.00;91.60;;;;;;5442945;26;20540;-77
2024/04/25 12:50:48;;;;;;;5.23;1.10;;;17.00;91.50;;;;;;5449033;26;21242;-76
2024/04/25 12:53:14;;;;;;;4.20;1.10;;;17.00;91.60;;;;;;5446065;26;20912;-76
2024/04/25 12:55:41;;;;;;;2.73;1.00;;;17.00;91.70;;;;;;5446632;26;20579;-76